Tropical Cyclones
[Index]
Main Index Home Page Stock Weather Photos Extreme Storms Discussion Storm News and Storm Chasing Reports Tropical Cyclones / Hurricanes / Typhoons Weather Data and Links Wild Fires / Bushfires Weather Observation Techniques Weather Picture Catalogue Tornado Pictures and Reports Stock Video Footage and DVDs for sale
Season 1957-1958 Tropical Cyclone 195813 Track Map
Season 1957-1958 Summaries: [BoM-AU] [JTWC-AU] [JTWC-SIO] [JTWC-SPAC] [JTWC-SH]
<<- Previous TC | JTWC 1957-1958 Season | Next TC ->>

click for intensity scale information  Lat/long Grid: Show Hide

 Date Labels: Show Hide

Joint Typhoon Warning Centre Cyclone Data

Name: 195813
Number: 320 / 5813

07 Feb 1958 18:00 UTC to 15 Feb 1958 00:00 UTC

    date/time    lat    long     hPa   cat  kts
1958-02-07 18    8.3   101.0                  20          
1958-02-08 00    8.3   101.0                  20          
1958-02-08 06    8.5   100.8                  20          
1958-02-08 12    8.7   100.6                  15          
1958-02-08 18    8.9   100.3                  15          
1958-02-09 00    9.1   100.1                  20          
1958-02-09 06    9.3    99.8                  20          
1958-02-09 12    9.5    99.6                  25          
1958-02-09 18    9.8    99.3                  25          
1958-02-10 00   10.0    98.9                  20          
1958-02-10 06   10.2    98.2                  15          
1958-02-10 12   10.5    96.9                  25          
1958-02-10 18   10.8    95.8                  25          
1958-02-11 00   11.2    94.8                  20          
1958-02-11 06   11.6    94.1                  20          
1958-02-11 12   12.1    93.8                  15          
1958-02-11 18   12.6    93.5                  10          
1958-02-12 00   13.2    93.3                  10          
1958-02-12 06   13.8    93.3                  10          
1958-02-12 12   14.2    93.6                  30          
1958-02-12 18   14.7    93.9                  35          
1958-02-13 00   15.3    94.2                  35          
1958-02-13 06   15.7    93.7                  35          
1958-02-13 12   15.9    92.9                  25          
1958-02-13 18   16.2    92.1                  20          
1958-02-14 00   16.6    91.3                  25          
1958-02-14 06   17.0    90.5                  25          
1958-02-14 12   17.2    89.7                  30          
1958-02-14 18   17.5    88.9                  30          
1958-02-15 00   17.9    87.6                  25          
Winds are 1-min average.

Tropical cyclone tracks developed by Michael Bath using data from the Joint Typhoon Warning Centre Best Tracks and Google Maps.


[Australian Severe Weather index] [Copyright Notice] [Email Contacts] [Search This Site] [Privacy Policy]
Document: tropical_cyclone_195813.htm Updated: 18 September 2016